Terminal Aerodrome Forecast
Issued by NWS Wilmington, OH

Current Version | Previous Version | Text Only | Print | Product List | Glossary Off
Versions: 1 2 3 4 5 6 7 8 9 10 11 12 13 14 15 16 17 18 19 20 21 22 23 24 25 26 27 28 29

000
FTUS41 KILN 181100 RRA
TAFCVG
TAF
KCVG 181153Z 1812/1918 30005KT P6SM OVC018
     FM181800 29005KT P6SM SCT025 OVC120
     FM182300 30004KT P6SM OVC060
     FM191600 32005KT P6SM SCT050 OVC250=

USA.gov is the U.S. government's official web portal to all federal, state and local government web resources and services.